Time;durP1;ratioP1;P1;durP2;ratioP2;P2;SDS_P1;SDS_P2;PMS_P1;PMS_P2;Temp;Humidity;BMP_temperature;BMP_pressure;BME280_temperature;BME280_humidity;BME280_pressure;Samples;Min_cycle;Max_cycle;Signal;HPM_P1;HPM_P2
2022/05/17 00:00:28;;;;;;;14.93;10.83;;;14.80;99.90;;;;;;4990203;28;20251;-76
2022/05/17 00:02:54;;;;;;;17.43;10.40;;;14.80;99.90;;;;;;4988220;28;20193;-76
2022/05/17 00:05:21;;;;;;;17.50;10.00;;;14.80;99.90;;;;;;4984009;28;20610;-78
2022/05/17 00:07:48;;;;;;;15.77;10.43;;;14.70;99.90;;;;;;4987480;28;20270;-76
2022/05/17 00:10:15;;;;;;;17.17;10.60;;;14.60;99.90;;;;;;4982676;28;20209;-75
2022/05/17 00:12:43;;;;;;;19.03;11.70;;;14.60;99.90;;;;;;4988745;28;20333;-77
2022/05/17 00:15:10;;;;;;;17.27;11.50;;;14.50;99.90;;;;;;4979707;28;20240;-78
2022/05/17 00:17:36;;;;;;;22.33;11.00;;;14.50;99.90;;;;;;4989707;28;20201;-75
2022/05/17 00:20:04;;;;;;;15.30;10.70;;;14.50;99.90;;;;;;4978288;28;20271;-75
2022/05/17 00:22:31;;;;;;;20.07;12.60;;;14.60;99.90;;;;;;4978714;28;20192;-76
2022/05/17 00:24:57;;;;;;;16.77;10.80;;;14.70;99.90;;;;;;4985987;28;20201;-75
2022/05/17 00:27:24;;;;;;;18.73;12.17;;;14.60;99.90;;;;;;4987164;28;20220;-74
2022/05/17 00:29:51;;;;;;;18.67;11.20;;;14.60;99.90;;;;;;4981420;28;20259;-77
2022/05/17 00:32:18;;;;;;;16.87;11.70;;;14.60;99.90;;;;;;4979944;28;20197;-76
2022/05/17 00:34:47;;;;;;;16.00;11.10;;;14.60;99.90;;;;;;4985613;28;20221;-78
2022/05/17 00:37:14;;;;;;;16.83;11.87;;;14.50;99.90;;;;;;4983801;28;20216;-76
2022/05/17 00:39:41;;;;;;;20.77;12.13;;;14.50;99.90;;;;;;4989831;28;20200;-76
2022/05/17 00:42:08;;;;;;;20.93;12.23;;;14.50;99.90;;;;;;4987733;28;20554;-76
2022/05/17 00:44:43;;;;;;;16.83;11.57;;;14.60;99.90;;;;;;4982948;28;20205;-76
2022/05/17 00:47:18;;;;;;;19.07;12.60;;;14.60;99.90;;;;;;4981376;28;20235;-76
2022/05/17 00:50:04;;;;;;;17.93;11.70;;;14.50;99.90;;;;;;4987505;28;20250;-75
2022/05/17 00:52:38;;;;;;;22.77;12.80;;;14.70;99.90;;;;;;4992265;28;20277;-76
2022/05/17 00:55:11;;;;;;;18.57;11.80;;;14.60;99.90;;;;;;4987537;28;20224;-77
2022/05/17 00:57:56;;;;;;;19.20;12.13;;;14.50;99.90;;;;;;4989155;28;20392;-76
2022/05/17 01:00:24;;;;;;;20.03;12.20;;;14.60;99.90;;;;;;4992361;28;20199;-76
2022/05/17 01:03:00;;;;;;;16.97;10.97;;;14.50;99.90;;;;;;4991826;28;20236;-79
2022/05/17 01:05:31;;;;;;;21.10;11.33;;;14.50;99.90;;;;;;4990559;28;20201;-76
2022/05/17 01:07:59;;;;;;;18.87;11.47;;;14.40;99.90;;;;;;4981563;28;20196;-76
2022/05/17 01:10:28;;;;;;;15.87;11.27;;;14.40;99.90;;;;;;4992034;28;20676;-77
2022/05/17 01:15:42;;;;;;;19.87;11.33;;;14.40;99.90;;;;;;4977183;28;20231;-75
2022/05/17 01:18:10;;;;;;;18.73;11.43;;;14.40;99.90;;;;;;4983341;28;20266;-76
2022/05/17 01:20:37;;;;;;;17.20;11.10;;;14.30;99.90;;;;;;4992359;28;20193;-77
2022/05/17 01:23:03;;;;;;;16.57;11.77;;;14.30;99.90;;;;;;4981519;28;20255;-76
2022/05/17 01:25:30;;;;;;;18.70;11.20;;;14.20;99.90;;;;;;4983038;28;20232;-78
2022/05/17 01:28:31;;;;;;;19.10;11.33;;;14.20;99.90;;;;;;4981213;28;20613;-75
2022/05/17 01:31:03;;;;;;;18.00;12.70;;;14.20;99.90;;;;;;4941443;28;20204;-75
2022/05/17 01:33:33;;;;;;;18.43;11.73;;;14.10;99.90;;;;;;4987188;28;20216;-78
2022/05/17 01:36:05;;;;;;;19.17;10.83;;;14.10;99.90;;;;;;4984647;28;20239;-77
2022/05/17 01:38:33;;;;;;;19.30;12.97;;;14.10;99.90;;;;;;4986351;28;20591;-78
2022/05/17 01:41:00;;;;;;;19.03;11.43;;;14.00;99.90;;;;;;4987282;28;20218;-77
2022/05/17 01:43:27;;;;;;;17.93;11.00;;;14.00;99.90;;;;;;4990943;28;20203;-76
2022/05/17 01:45:54;;;;;;;20.07;12.07;;;14.10;99.90;;;;;;4979993;28;20695;-76
2022/05/17 01:48:20;;;;;;;20.47;11.93;;;14.00;99.90;;;;;;4990214;28;20231;-79
2022/05/17 01:50:47;;;;;;;16.40;11.60;;;14.00;99.90;;;;;;4985165;28;20518;-76
2022/05/17 01:53:14;;;;;;;17.47;11.30;;;14.00;99.90;;;;;;4983880;28;20218;-76
2022/05/17 01:55:40;;;;;;;20.27;11.93;;;14.00;99.90;;;;;;4991490;28;20224;-75
2022/05/17 01:58:07;;;;;;;17.67;10.80;;;13.90;99.90;;;;;;4989378;28;20648;-76
2022/05/17 02:00:35;;;;;;;19.83;11.17;;;13.80;99.90;;;;;;4985840;28;20196;-76
2022/05/17 02:03:02;;;;;;;19.77;12.77;;;13.70;99.90;;;;;;4980672;28;20199;-76
2022/05/17 02:05:28;;;;;;;18.00;11.23;;;13.80;99.90;;;;;;4992176;28;20294;-77
2022/05/17 02:07:55;;;;;;;20.63;11.40;;;13.80;99.90;;;;;;4983239;28;20331;-79
2022/05/17 02:10:25;;;;;;;18.27;11.93;;;13.70;99.90;;;;;;4985757;28;20208;-80
2022/05/17 02:12:54;;;;;;;19.57;12.30;;;13.80;99.90;;;;;;4987806;28;20207;-76
2022/05/17 02:15:21;;;;;;;18.53;12.03;;;13.80;99.90;;;;;;4991478;28;20291;-77
2022/05/17 02:17:48;;;;;;;18.87;11.40;;;13.80;99.90;;;;;;4983894;28;20196;-77
2022/05/17 02:20:15;;;;;;;17.27;10.57;;;13.70;99.90;;;;;;4981045;28;20624;-76
2022/05/17 02:22:42;;;;;;;14.23;10.27;;;13.60;99.90;;;;;;4989706;28;20200;-76
2022/05/17 02:25:10;;;;;;;17.77;11.00;;;13.50;99.90;;;;;;4981237;28;20206;-76
2022/05/17 02:27:37;;;;;;;14.93;10.07;;;13.50;99.90;;;;;;4989631;28;20200;-76
2022/05/17 02:30:09;;;;;;;17.73;10.20;;;13.40;99.90;;;;;;4983098;28;20671;-74
2022/05/17 02:32:36;;;;;;;13.53;9.53;;;13.30;99.90;;;;;;4984340;28;20206;-76
2022/05/17 02:35:05;;;;;;;15.30;10.10;;;13.30;99.90;;;;;;4978605;28;20219;-77
2022/05/17 02:37:32;;;;;;;13.13;9.67;;;13.30;99.90;;;;;;4985420;28;22476;-76
2022/05/17 02:39:58;;;;;;;16.90;10.10;;;13.30;99.90;;;;;;4984569;28;20242;-77
2022/05/17 02:42:25;;;;;;;13.57;9.83;;;13.40;99.90;;;;;;4985472;28;20199;-77
2022/05/17 02:44:52;;;;;;;15.23;9.90;;;13.40;99.90;;;;;;4987095;28;20199;-77
2022/05/17 02:47:18;;;;;;;16.53;9.07;;;13.40;99.90;;;;;;4987256;28;20229;-78
2022/05/17 02:49:45;;;;;;;16.63;8.77;;;13.30;99.90;;;;;;4984513;28;20588;-76
2022/05/17 02:52:12;;;;;;;14.77;9.63;;;13.20;99.90;;;;;;4983617;28;20206;-78
2022/05/17 02:54:40;;;;;;;14.03;9.03;;;13.10;99.90;;;;;;4979055;28;20715;-77
2022/05/17 02:57:07;;;;;;;15.23;8.77;;;13.00;99.90;;;;;;4984190;28;20289;-77
2022/05/17 02:59:35;;;;;;;12.10;8.47;;;13.00;99.90;;;;;;4986735;28;20481;-75
2022/05/17 03:02:02;;;;;;;14.10;9.07;;;12.90;99.90;;;;;;4983601;28;20662;-77
2022/05/17 03:04:29;;;;;;;14.20;8.93;;;12.90;99.90;;;;;;4984597;28;20202;-79
2022/05/17 03:06:56;;;;;;;16.30;9.63;;;12.90;99.90;;;;;;4993165;28;20225;-80
2022/05/17 03:09:23;;;;;;;14.37;9.30;;;12.90;99.90;;;;;;4989754;28;20203;-79
2022/05/17 03:11:51;;;;;;;12.63;9.77;;;12.90;99.90;;;;;;4988620;28;20206;-75
2022/05/17 03:14:18;;;;;;;13.70;8.83;;;12.90;99.90;;;;;;4988028;28;20230;-76
2022/05/17 03:16:45;;;;;;;12.57;8.70;;;12.90;99.90;;;;;;4985474;28;20217;-76
2022/05/17 03:19:12;;;;;;;10.90;8.37;;;12.90;99.90;;;;;;4985697;28;20678;-76
2022/05/17 03:21:39;;;;;;;15.00;8.70;;;12.80;99.90;;;;;;4988216;28;20252;-76
2022/05/17 03:24:07;;;;;;;13.70;8.80;;;12.80;99.90;;;;;;4982674;28;20210;-76
2022/05/17 03:26:53;;;;;;;16.77;9.43;;;12.80;99.90;;;;;;4986912;28;20595;-78
2022/05/17 03:29:20;;;;;;;15.57;9.77;;;12.80;99.90;;;;;;4981293;28;20199;-77
2022/05/17 03:31:46;;;;;;;16.33;9.83;;;12.80;99.90;;;;;;4988754;28;20559;-76
2022/05/17 03:34:13;;;;;;;19.87;10.57;;;12.70;99.90;;;;;;4982608;28;20762;-76
2022/05/17 03:36:40;;;;;;;16.00;9.70;;;12.80;99.90;;;;;;4986821;28;20217;-77
2022/05/17 03:39:06;;;;;;;14.97;10.00;;;12.90;99.90;;;;;;4990932;28;20201;-77
2022/05/17 03:41:33;;;;;;;15.23;9.93;;;12.90;99.90;;;;;;4980876;28;20202;-77
2022/05/17 03:44:00;;;;;;;13.13;9.47;;;13.00;99.90;;;;;;4982023;28;20210;-78
2022/05/17 03:46:26;;;;;;;14.73;10.00;;;12.90;99.90;;;;;;4981329;28;20597;-78
2022/05/17 03:48:53;;;;;;;13.20;8.90;;;13.00;99.90;;;;;;4980275;28;20256;-77
2022/05/17 03:51:21;;;;;;;15.50;8.73;;;13.10;99.90;;;;;;4980794;28;20682;-77
2022/05/17 03:53:50;;;;;;;13.73;9.27;;;13.10;99.90;;;;;;4990796;28;20197;-77
2022/05/17 03:56:17;;;;;;;12.07;8.57;;;13.20;99.90;;;;;;4985100;28;20230;-77
2022/05/17 03:58:44;;;;;;;11.90;8.80;;;13.20;99.90;;;;;;4989093;28;20197;-77
2022/05/17 04:01:12;;;;;;;14.23;8.90;;;13.20;99.90;;;;;;4987829;28;20221;-75
2022/05/17 04:03:40;;;;;;;13.90;9.00;;;13.20;99.90;;;;;;4985095;28;20202;-79
2022/05/17 04:06:07;;;;;;;16.73;9.73;;;13.30;99.90;;;;;;4982994;28;20227;-77
2022/05/17 04:08:34;;;;;;;17.47;9.37;;;13.30;99.90;;;;;;4983830;28;20210;-78
2022/05/17 04:11:01;;;;;;;15.10;9.13;;;13.40;99.90;;;;;;4982511;28;20498;-77
2022/05/17 04:13:29;;;;;;;14.63;9.73;;;13.40;99.90;;;;;;4978114;28;20526;-77
2022/05/17 04:15:57;;;;;;;14.73;9.07;;;13.40;99.90;;;;;;4981137;28;20279;-76
2022/05/17 04:18:25;;;;;;;15.53;9.43;;;13.40;99.90;;;;;;4989262;28;20209;-77
2022/05/17 04:20:57;;;;;;;12.63;8.60;;;13.30;99.90;;;;;;4983716;28;20253;-77
2022/05/17 04:23:24;;;;;;;16.70;9.37;;;13.30;99.90;;;;;;4985979;28;20198;-78
2022/05/17 04:25:50;;;;;;;15.93;10.17;;;13.20;99.90;;;;;;4981813;28;20221;-76
2022/05/17 04:28:17;;;;;;;14.93;9.53;;;13.20;99.90;;;;;;4987567;28;20217;-79
2022/05/17 04:30:44;;;;;;;17.50;10.20;;;13.20;99.90;;;;;;4983390;28;20252;-76
2022/05/17 04:33:12;;;;;;;17.00;10.20;;;13.30;99.90;;;;;;4978128;28;20208;-77
2022/05/17 04:35:40;;;;;;;15.07;9.63;;;13.30;99.90;;;;;;4976445;28;20293;-76
2022/05/17 04:38:07;;;;;;;14.73;9.50;;;13.20;99.90;;;;;;4986251;28;20497;-77
2022/05/17 04:40:35;;;;;;;13.60;9.53;;;13.20;99.90;;;;;;4989142;28;20209;-77
2022/05/17 04:43:02;;;;;;;16.67;10.57;;;13.20;99.90;;;;;;4980009;28;20249;-79
2022/05/17 04:45:30;;;;;;;14.37;9.87;;;13.20;99.90;;;;;;4985081;28;20711;-76
2022/05/17 04:47:56;;;;;;;14.10;9.37;;;13.40;99.90;;;;;;4984654;28;20709;-76
2022/05/17 04:50:23;;;;;;;13.27;9.23;;;13.40;99.90;;;;;;4983615;28;20207;-78
2022/05/17 04:52:50;;;;;;;17.47;10.70;;;13.50;99.90;;;;;;4984453;28;20211;-78
2022/05/17 04:55:19;;;;;;;17.40;10.63;;;13.60;99.90;;;;;;4982798;28;20679;-77
2022/05/17 04:57:47;;;;;;;17.97;10.43;;;13.70;99.90;;;;;;4984701;28;20676;-78
2022/05/17 05:00:18;;;;;;;16.27;10.50;;;13.80;99.90;;;;;;4985187;28;20590;-76
2022/05/17 05:02:45;;;;;;;15.20;9.80;;;13.90;99.90;;;;;;4989726;28;20197;-76
2022/05/17 05:05:13;;;;;;;19.47;10.60;;;13.90;99.90;;;;;;4988805;28;20207;-77
2022/05/17 05:07:39;;;;;;;20.37;11.77;;;14.00;99.90;;;;;;4982697;28;20201;-76
2022/05/17 05:10:06;;;;;;;19.90;10.70;;;14.20;99.90;;;;;;4982771;28;20416;-77
2022/05/17 05:12:37;;;;;;;20.90;11.33;;;14.30;99.90;;;;;;4983747;28;20212;-77
2022/05/17 05:15:04;;;;;;;16.30;10.97;;;14.40;99.90;;;;;;4978143;28;20213;-74
2022/05/17 05:17:34;;;;;;;23.17;12.53;;;14.50;99.90;;;;;;4984319;28;20232;-77
2022/05/17 05:20:01;;;;;;;20.87;13.63;;;14.60;99.90;;;;;;4982560;28;20197;-76
2022/05/17 05:22:30;;;;;;;16.87;12.07;;;14.80;99.90;;;;;;4977668;28;20575;-73
2022/05/17 05:24:57;;;;;;;17.30;12.57;;;14.90;99.90;;;;;;4980265;28;20204;-74
2022/05/17 05:27:24;;;;;;;20.77;13.93;;;15.00;99.90;;;;;;4987133;28;20221;-73
2022/05/17 05:29:50;;;;;;;24.17;14.83;;;15.10;99.90;;;;;;4981405;28;20204;-72
2022/05/17 05:32:17;;;;;;;25.47;15.90;;;15.30;99.90;;;;;;4980372;28;20193;-73
2022/05/17 05:34:44;;;;;;;24.60;15.70;;;15.30;99.90;;;;;;4983204;28;20201;-73
2022/05/17 05:37:10;;;;;;;28.43;15.67;;;15.30;99.90;;;;;;4980705;28;20221;-72
2022/05/17 05:39:37;;;;;;;22.93;15.23;;;15.40;99.90;;;;;;4989154;28;20578;-71
2022/05/17 05:42:05;;;;;;;22.60;14.87;;;15.60;99.90;;;;;;4993062;28;20201;-72
2022/05/17 05:44:33;;;;;;;25.07;14.83;;;15.50;99.90;;;;;;4992209;28;20306;-72
2022/05/17 05:47:04;;;;;;;20.93;14.37;;;15.70;99.90;;;;;;4983351;28;20256;-73
2022/05/17 05:49:31;;;;;;;19.90;13.73;;;15.80;99.90;;;;;;4985620;28;20197;-72
2022/05/17 05:51:58;;;;;;;19.17;13.90;;;16.00;99.90;;;;;;4981705;28;20201;-72
2022/05/17 05:54:24;;;;;;;22.27;13.53;;;16.10;99.90;;;;;;4985007;28;20212;-72
2022/05/17 05:56:51;;;;;;;21.10;13.90;;;16.10;99.90;;;;;;4981550;28;20652;-73
2022/05/17 05:59:18;;;;;;;21.37;13.93;;;16.30;99.90;;;;;;4982370;28;20201;-74
2022/05/17 06:01:44;;;;;;;23.40;13.90;;;16.40;99.90;;;;;;4981934;28;20197;-72
2022/05/17 06:04:11;;;;;;;19.77;13.90;;;16.50;99.90;;;;;;4980879;28;20281;-72
2022/05/17 06:06:40;;;;;;;19.83;13.23;;;16.70;99.90;;;;;;4985086;28;20491;-73
2022/05/17 06:09:06;;;;;;;20.77;13.37;;;16.70;99.90;;;;;;4982111;28;20337;-74
2022/05/17 06:11:33;;;;;;;21.97;12.97;;;16.70;99.90;;;;;;4980011;28;20214;-74
2022/05/17 06:14:00;;;;;;;19.27;12.23;;;16.80;99.90;;;;;;4984446;28;20227;-74
2022/05/17 06:16:27;;;;;;;18.93;12.00;;;16.80;99.90;;;;;;4987119;28;20221;-74
2022/05/17 06:18:55;;;;;;;18.90;11.27;;;17.20;99.90;;;;;;4981537;28;20205;-74
2022/05/17 06:21:21;;;;;;;15.17;11.00;;;17.20;99.90;;;;;;4987921;28;20256;-74
2022/05/17 06:23:48;;;;;;;18.93;10.40;;;17.60;99.90;;;;;;4982558;28;20204;-75
2022/05/17 06:26:15;;;;;;;14.10;9.20;;;17.70;99.90;;;;;;4986615;28;20229;-73
2022/05/17 06:28:41;;;;;;;10.47;8.20;;;17.90;99.90;;;;;;4979271;28;20201;-74
2022/05/17 06:31:08;;;;;;;13.00;8.40;;;18.10;99.90;;;;;;4981013;28;20201;-74
2022/05/17 06:33:35;;;;;;;12.23;7.93;;;18.40;99.90;;;;;;4990279;28;20664;-77
2022/05/17 06:36:02;;;;;;;11.07;7.93;;;18.50;99.90;;;;;;4985563;28;20225;-72
2022/05/17 06:38:29;;;;;;;12.93;8.10;;;18.90;99.90;;;;;;4984837;28;20561;-76
2022/05/17 06:40:56;;;;;;;11.57;7.40;;;19.10;99.90;;;;;;4983904;28;20198;-75
2022/05/17 06:43:22;;;;;;;10.47;7.43;;;19.30;99.90;;;;;;4988300;28;20193;-74
2022/05/17 06:45:49;;;;;;;10.03;7.70;;;19.50;99.90;;;;;;4983455;28;20280;-74
2022/05/17 06:48:16;;;;;;;9.00;7.00;;;19.60;99.90;;;;;;4984878;28;20198;-74
2022/05/17 06:50:43;;;;;;;14.23;7.67;;;19.80;99.90;;;;;;4979368;28;20251;-75
2022/05/17 06:53:10;;;;;;;13.07;7.63;;;20.10;99.90;;;;;;4977603;28;20361;-75
2022/05/17 06:55:38;;;;;;;9.35;7.15;;;20.30;99.90;;;;;;4985511;28;20748;-74
2022/05/17 06:58:04;;;;;;;12.77;7.85;;;20.40;99.90;;;;;;4987551;28;20194;-75
2022/05/17 07:00:31;;;;;;;14.07;7.32;;;20.40;99.90;;;;;;4987689;28;20244;-74
2022/05/17 07:02:59;;;;;;;11.93;8.43;;;20.60;99.90;;;;;;4983814;28;20200;-75
2022/05/17 07:05:28;;;;;;;10.38;7.18;;;20.90;99.90;;;;;;4988450;28;20213;-75
2022/05/17 07:07:58;;;;;;;9.07;6.60;;;21.50;99.90;;;;;;4979236;28;20666;-75
2022/05/17 07:13:12;;;;;;;7.90;6.28;;;22.70;99.90;;;;;;4983730;28;20201;-75
2022/05/17 07:15:42;;;;;;;13.10;6.45;;;23.10;99.90;;;;;;4984566;28;20418;-75
2022/05/17 07:18:11;;;;;;;8.75;6.18;;;23.30;99.90;;;;;;4984586;28;20205;-74
2022/05/17 07:20:38;;;;;;;9.73;5.50;;;23.60;99.90;;;;;;4981889;28;20630;-74
2022/05/17 07:23:06;;;;;;;9.38;5.70;;;23.90;99.90;;;;;;4979709;28;20204;-76
2022/05/17 07:25:33;;;;;;;9.40;5.78;;;24.20;99.90;;;;;;4982883;28;20239;-75
2022/05/17 07:28:00;;;;;;;8.07;5.50;;;24.50;99.90;;;;;;4985793;28;20213;-75
2022/05/17 07:30:27;;;;;;;7.80;5.00;;;23.90;99.90;;;;;;4985478;28;20228;-72
2022/05/17 07:32:55;;;;;;;7.45;4.55;;;23.60;99.90;;;;;;4984931;28;20224;-74
2022/05/17 07:35:21;;;;;;;8.15;4.97;;;23.60;99.90;;;;;;4982683;28;20408;-74
2022/05/17 07:37:49;;;;;;;6.85;4.45;;;23.80;99.90;;;;;;4986360;28;20193;-78
2022/05/17 07:40:16;;;;;;;10.30;4.85;;;23.90;99.90;;;;;;4980202;28;20201;-73
2022/05/17 07:42:43;;;;;;;6.85;4.60;;;24.30;99.90;;;;;;4981175;28;20203;-75
2022/05/17 07:45:12;;;;;;;8.80;4.68;;;24.20;99.90;;;;;;4987108;28;20201;-76
2022/05/17 07:47:38;;;;;;;8.18;4.53;;;24.20;99.90;;;;;;4985889;28;20200;-77
2022/05/17 07:50:06;;;;;;;9.95;4.22;;;24.70;99.90;;;;;;4988576;28;20204;-77
2022/05/17 07:52:33;;;;;;;8.70;4.13;;;24.90;99.90;;;;;;4986778;28;20665;-76
2022/05/17 07:55:01;;;;;;;7.32;4.47;;;24.90;99.90;;;;;;4989301;28;20200;-74
2022/05/17 07:57:28;;;;;;;8.82;5.03;;;25.10;99.90;;;;;;4987594;28;20237;-74
2022/05/17 07:59:55;;;;;;;10.63;4.85;;;25.10;99.90;;;;;;4984479;28;20205;-76
2022/05/17 08:02:22;;;;;;;8.85;4.85;;;24.40;99.90;;;;;;4986165;28;20590;-76
2022/05/17 08:04:48;;;;;;;7.60;4.68;;;24.20;99.90;;;;;;4989089;28;20193;-72
2022/05/17 08:07:15;;;;;;;10.70;5.63;;;24.30;99.90;;;;;;4984961;28;20248;-74
2022/05/17 08:09:42;;;;;;;9.63;5.25;;;24.40;99.90;;;;;;4989269;28;20205;-74
2022/05/17 08:12:10;;;;;;;9.40;6.18;;;24.70;99.90;;;;;;4976727;28;20208;-74
2022/05/17 08:14:39;;;;;;;13.25;6.35;;;24.80;99.90;;;;;;4988813;28;20271;-74
2022/05/17 08:17:08;;;;;;;12.30;6.05;;;25.10;99.90;;;;;;4976529;28;20221;-76
2022/05/17 08:19:38;;;;;;;12.15;6.15;;;25.30;99.90;;;;;;4982381;28;20201;-73
2022/05/17 08:22:10;;;;;;;9.48;6.22;;;25.40;99.90;;;;;;4982975;28;20197;-74
2022/05/17 08:27:36;;;;;;;17.52;6.30;;;24.90;99.90;;;;;;4983596;28;20228;-73
2022/05/17 08:30:17;;;;;;;11.77;6.68;;;25.00;99.90;;;;;;4982644;28;20205;-79
2022/05/17 08:35:39;;;;;;;9.43;5.70;;;24.80;99.90;;;;;;4986225;28;20739;-74
2022/05/17 08:38:06;;;;;;;7.38;5.07;;;24.70;99.90;;;;;;4986334;28;20204;-74
2022/05/17 08:40:42;;;;;;;10.35;5.10;;;25.10;99.90;;;;;;4989326;28;20209;-75
2022/05/17 08:43:43;;;;;;;11.23;4.30;;;25.60;99.90;;;;;;4984274;28;20200;-74
2022/05/17 08:46:38;;;;;;;10.15;3.55;;;26.10;99.90;;;;;;4986023;28;20643;-72
2022/05/17 08:49:29;;;;;;;6.25;3.17;;;26.20;99.90;;;;;;4974438;28;20289;-74
2022/05/17 08:52:01;;;;;;;7.70;3.60;;;26.50;99.90;;;;;;4975398;28;20991;-71
2022/05/17 08:54:36;;;;;;;8.57;2.78;;;26.70;99.90;;;;;;4973708;28;20202;-73
2022/05/17 08:57:30;;;;;;;7.03;3.47;;;27.00;99.90;;;;;;4969556;28;20224;-74
2022/05/17 09:00:04;;;;;;;7.72;2.78;;;27.00;99.90;;;;;;4988341;28;20197;-74
2022/05/17 09:02:39;;;;;;;7.25;3.50;;;26.40;99.90;;;;;;4967994;28;20571;-74
2022/05/17 09:05:19;;;;;;;5.70;3.25;;;26.10;99.90;;;;;;4970601;28;20332;-73
2022/05/17 09:07:56;;;;;;;9.95;3.90;;;26.10;99.90;;;;;;4970571;28;22331;-76
2022/05/17 09:10:38;;;;;;;9.77;3.90;;;26.10;99.90;;;;;;4979212;28;20205;-76
2022/05/17 09:13:13;;;;;;;6.00;2.90;;;26.20;99.90;;;;;;4975711;28;20217;-74
2022/05/17 09:15:40;;;;;;;11.43;4.18;;;26.30;99.90;;;;;;4980775;28;20707;-72
2022/05/17 09:18:10;;;;;;;6.35;3.10;;;26.50;99.90;;;;;;4977474;28;20275;-75
2022/05/17 09:20:39;;;;;;;7.25;3.38;;;26.50;99.90;;;;;;4970670;28;20204;-79
2022/05/17 09:23:07;;;;;;;7.45;3.42;;;26.60;99.90;;;;;;4978248;28;20677;-77
2022/05/17 09:25:51;;;;;;;8.60;3.28;;;26.70;99.90;;;;;;4972809;28;20708;-78
2022/05/17 09:28:24;;;;;;;6.40;3.15;;;26.70;99.90;;;;;;4980277;28;20230;-74
2022/05/17 09:31:12;;;;;;;6.63;3.28;;;26.70;99.90;;;;;;4985244;28;20608;-74
2022/05/17 09:33:41;;;;;;;7.15;2.72;;;26.60;99.90;;;;;;4988104;28;20227;-73
2022/05/17 09:36:16;;;;;;;7.80;3.08;;;26.40;99.90;;;;;;4987318;28;20696;-76
2022/05/17 09:38:43;;;;;;;7.65;2.30;;;26.00;99.90;;;;;;4984104;28;20208;-73
2022/05/17 09:41:14;;;;;;;4.60;2.53;;;25.70;99.90;;;;;;4972179;28;20200;-72
2022/05/17 09:43:50;;;;;;;4.50;2.25;;;25.70;99.90;;;;;;4976840;28;20197;-75
2022/05/17 09:46:35;;;;;;;4.57;2.20;;;25.80;99.90;;;;;;4974557;28;20342;-73
2022/05/17 09:55:25;;;;;;;7.10;3.38;;;26.10;99.90;;;;;;4940611;28;20330;-75
2022/05/17 09:57:55;;;;;;;12.25;4.07;;;26.00;99.90;;;;;;4940423;28;20250;-73
2022/05/17 10:00:30;;;;;;;4.82;2.70;;;25.70;99.90;;;;;;4963041;28;20204;-73
2022/05/17 10:03:04;;;;;;;4.93;2.75;;;25.60;99.90;;;;;;4975752;28;20271;-75
2022/05/17 10:05:36;;;;;;;3.60;2.50;;;25.70;99.90;;;;;;4973853;28;20217;-73
2022/05/17 10:08:13;;;;;;;4.30;1.92;;;26.00;99.90;;;;;;4971491;28;20636;-78
2022/05/17 10:11:19;;;;;;;3.05;1.67;;;26.10;99.90;;;;;;4979111;28;20215;-74
2022/05/17 10:13:46;;;;;;;3.33;1.80;;;26.40;99.90;;;;;;4978783;28;20224;-74
2022/05/17 10:16:35;;;;;;;4.85;2.13;;;26.80;99.90;;;;;;4972165;28;20225;-75
2022/05/17 10:19:05;;;;;;;7.82;3.25;;;27.40;99.90;;;;;;4976664;28;20208;-77
2022/05/17 10:21:59;;;;;;;4.63;3.03;;;27.60;99.90;;;;;;4985813;28;20247;-77
2022/05/17 10:24:56;;;;;;;7.68;3.20;;;27.90;99.90;;;;;;4979247;28;20193;-78
2022/05/17 10:27:37;;;;;;;8.05;3.30;;;27.70;99.90;;;;;;4979836;28;21573;-74
2022/05/17 10:30:11;;;;;;;4.53;2.33;;;27.90;99.90;;;;;;4982448;28;20293;-76
2022/05/17 10:32:51;;;;;;;5.72;2.20;;;28.20;99.90;;;;;;4986123;28;20197;-80
2022/05/17 10:35:31;;;;;;;5.65;2.13;;;28.50;99.90;;;;;;4985454;28;20224;-77
2022/05/17 10:38:12;;;;;;;5.57;2.47;;;28.70;99.90;;;;;;4981697;28;20644;-76
2022/05/17 10:40:46;;;;;;;3.60;1.70;;;28.90;99.90;;;;;;4989261;28;20595;-79
2022/05/17 10:43:32;;;;;;;4.43;2.20;;;29.10;99.90;;;;;;4983605;28;20275;-76
2022/05/17 10:46:19;;;;;;;8.18;2.70;;;29.30;99.90;;;;;;4984432;28;20217;-76
2022/05/17 10:49:24;;;;;;;4.80;1.98;;;29.40;99.90;;;;;;4986433;28;20228;-74
2022/05/17 10:51:59;;;;;;;7.50;2.10;;;29.50;99.90;;;;;;4955943;28;20559;-75
2022/05/17 10:54:41;;;;;;;4.15;2.60;;;29.40;99.90;;;;;;4987091;28;20204;-74
2022/05/17 10:57:52;;;;;;;4.00;2.13;;;29.20;99.90;;;;;;4987934;28;20227;-76
2022/05/17 11:00:25;;;;;;;3.55;1.67;;;29.10;99.90;;;;;;4984359;28;20204;-74
2022/05/17 11:03:10;;;;;;;4.22;2.42;;;29.20;99.90;;;;;;4986380;28;20220;-72
2022/05/17 11:06:08;;;;;;;4.13;2.50;;;29.30;99.90;;;;;;4992360;28;20809;-75
2022/05/17 11:08:56;;;;;;;2.47;1.73;;;29.40;99.90;;;;;;4993898;28;20201;-74
2022/05/17 11:11:36;;;;;;;4.15;1.65;;;29.60;99.90;;;;;;4978202;28;20201;-73
2022/05/17 11:14:12;;;;;;;3.63;1.58;;;29.80;99.90;;;;;;4985569;28;20207;-71
2022/05/17 11:16:42;;;;;;;5.03;1.83;;;29.70;99.90;;;;;;4985488;28;20602;-72
2022/05/17 11:19:22;;;;;;;2.50;1.50;;;30.00;99.90;;;;;;4992313;28;20198;-70
2022/05/17 11:22:06;;;;;;;6.22;1.60;;;30.10;99.10;;;;;;4982905;28;20193;-77
2022/05/17 11:24:52;;;;;;;3.67;1.52;;;30.20;98.70;;;;;;4990219;28;20200;-73
2022/05/17 11:27:56;;;;;;;2.10;1.65;;;30.20;98.80;;;;;;4989503;28;20339;-74
2022/05/17 11:30:28;;;;;;;3.08;1.58;;;30.20;98.90;;;;;;4982892;28;20723;-73
2022/05/17 11:33:21;;;;;;;2.78;1.50;;;30.60;98.50;;;;;;4987873;28;20893;-73
2022/05/17 11:35:48;;;;;;;6.13;1.70;;;30.80;98.70;;;;;;4964834;28;20217;-74
2022/05/17 11:38:32;;;;;;;4.18;1.60;;;30.60;98.70;;;;;;4974960;28;20222;-73
2022/05/17 11:41:01;;;;;;;6.10;2.45;;;30.70;99.90;;;;;;4990298;28;20200;-74
2022/05/17 11:43:56;;;;;;;5.82;1.77;;;30.90;99.40;;;;;;4982808;28;20636;-75
2022/05/17 11:46:33;;;;;;;3.80;1.90;;;30.70;99.60;;;;;;4987194;28;20556;-74
2022/05/17 11:49:07;;;;;;;3.00;1.70;;;30.50;99.90;;;;;;4988490;28;20243;-74
2022/05/17 11:51:38;;;;;;;3.58;1.85;;;30.60;99.80;;;;;;4986090;28;20210;-74
2022/05/17 11:54:08;;;;;;;3.72;1.85;;;30.80;99.00;;;;;;4985244;28;20193;-76
2022/05/17 11:56:38;;;;;;;4.97;2.05;;;30.80;99.40;;;;;;4987407;28;20696;-75
2022/05/17 11:59:08;;;;;;;7.00;2.10;;;30.90;99.00;;;;;;4990942;28;20247;-77
2022/05/17 12:01:37;;;;;;;5.43;2.33;;;31.00;99.60;;;;;;4984889;28;20197;-75
2022/05/17 12:04:20;;;;;;;3.30;1.90;;;30.90;98.10;;;;;;4981472;28;20564;-74
2022/05/17 12:06:53;;;;;;;5.03;2.13;;;30.80;98.30;;;;;;4978396;28;20217;-75
2022/05/17 12:09:23;;;;;;;5.95;2.10;;;30.70;99.50;;;;;;4983333;28;20231;-73
2022/05/17 12:11:56;;;;;;;2.63;1.70;;;30.70;98.90;;;;;;4982515;28;20205;-74
2022/05/17 12:14:27;;;;;;;4.32;1.83;;;31.00;99.90;;;;;;4989110;28;20201;-75
2022/05/17 12:17:04;;;;;;;2.53;1.60;;;31.10;98.70;;;;;;4985916;28;20696;-77
2022/05/17 12:19:49;;;;;;;4.07;2.08;;;31.20;98.20;;;;;;4985147;28;20215;-77
2022/05/17 12:22:28;;;;;;;5.07;1.85;;;31.30;99.20;;;;;;4979666;28;20197;-74
2022/05/17 12:25:04;;;;;;;4.03;1.70;;;31.40;97.60;;;;;;4981454;28;20196;-74
2022/05/17 12:27:40;;;;;;;3.60;1.58;;;31.70;98.30;;;;;;4978253;28;20268;-77
2022/05/17 12:33:27;;;;;;;4.22;1.60;;;32.40;97.20;;;;;;4985912;28;20331;-74
2022/05/17 12:36:09;;;;;;;3.22;1.75;;;32.60;97.30;;;;;;4986624;28;20213;-75
2022/05/17 12:44:17;;;;;;;3.95;1.52;;;33.10;96.40;;;;;;4983320;28;20201;-74
2022/05/17 12:46:46;;;;;;;3.00;1.60;;;33.10;96.40;;;;;;4977454;28;20220;-77
2022/05/17 12:49:22;;;;;;;4.30;1.70;;;33.30;95.30;;;;;;4980438;28;20654;-75
2022/05/17 12:51:54;;;;;;;4.80;1.73;;;33.20;95.80;;;;;;4979329;28;20585;-74
2022/05/17 12:54:27;;;;;;;3.58;1.60;;;33.30;95.30;;;;;;4978159;28;20198;-75
2022/05/17 12:57:21;;;;;;;4.55;1.50;;;33.00;96.40;;;;;;4984613;28;20676;-76
2022/05/17 12:59:48;;;;;;;1.95;1.45;;;33.10;95.70;;;;;;4975534;28;20212;-75
2022/05/17 13:02:25;;;;;;;2.22;1.70;;;33.10;96.00;;;;;;4990387;28;20247;-73
2022/05/17 13:04:52;;;;;;;3.53;1.85;;;33.30;95.60;;;;;;4982802;28;20195;-73
2022/05/17 13:07:22;;;;;;;3.92;1.40;;;33.50;95.30;;;;;;4984666;28;20270;-76
2022/05/17 13:10:08;;;;;;;3.22;1.50;;;33.20;95.50;;;;;;4984431;28;20251;-74
2022/05/17 13:12:42;;;;;;;4.40;1.60;;;33.00;95.00;;;;;;4987602;28;20227;-76
2022/05/17 13:15:11;;;;;;;6.30;3.33;;;32.90;94.60;;;;;;4987153;28;20205;-76
2022/05/17 13:17:41;;;;;;;2.10;1.50;;;32.80;95.10;;;;;;4979672;28;20634;-74
2022/05/17 13:20:20;;;;;;;2.75;1.50;;;32.80;95.10;;;;;;4988113;28;20201;-74
2022/05/17 13:22:51;;;;;;;2.30;1.30;;;32.70;94.80;;;;;;4979164;28;20217;-78
2022/05/17 13:25:21;;;;;;;2.92;1.40;;;32.60;94.40;;;;;;4982492;28;20197;-73